sensor_id;sensor_type;location;lat;lon;timestamp;pressure;altitude;pressure_sealevel;temperature;humidity
68525;BME280;55524;51.380;13.372;2024-01-07T00:01:30;100519.44;;;-1.11;100.00
68525;BME280;55524;51.380;13.372;2024-01-07T00:03:56;100522.03;;;-1.14;100.00
68525;BME280;55524;51.380;13.372;2024-01-07T00:06:25;100524.53;;;-1.20;100.00
68525;BME280;55524;51.380;13.372;2024-01-07T00:08:52;100531.50;;;-1.18;100.00
68525;BME280;55524;51.380;13.372;2024-01-07T00:11:20;100527.13;;;-1.19;100.00
68525;BME280;55524;51.380;13.372;2024-01-07T00:13:47;100523.72;;;-1.16;100.00
68525;BME280;55524;51.380;13.372;2024-01-07T00:16:17;100521.94;;;-1.22;100.00
68525;BME280;55524;51.380;13.372;2024-01-07T00:18:43;100528.91;;;-1.16;100.00
68525;BME280;55524;51.380;13.372;2024-01-07T00:21:15;100528.00;;;-1.21;100.00
68525;BME280;55524;51.380;13.372;2024-01-07T00:23:41;100523.66;;;-1.21;100.00
68525;BME280;55524;51.380;13.372;2024-01-07T00:26:09;100532.31;;;-1.22;100.00
68525;BME280;55524;51.380;13.372;2024-01-07T00:28:36;100530.53;;;-1.23;100.00
68525;BME280;55524;51.380;13.372;2024-01-07T00:31:02;100545.22;;;-1.25;100.00
68525;BME280;55524;51.380;13.372;2024-01-07T00:33:31;100541.78;;;-1.24;100.00
68525;BME280;55524;51.380;13.372;2024-01-07T00:35:58;100545.31;;;-1.17;100.00
68525;BME280;55524;51.380;13.372;2024-01-07T00:38:52;100540.94;;;-1.21;100.00
68525;BME280;55524;51.380;13.372;2024-01-07T00:41:19;100545.25;;;-1.22;100.00
68525;BME280;55524;51.380;13.372;2024-01-07T00:43:45;100545.22;;;-1.25;100.00
68525;BME280;55524;51.380;13.372;2024-01-07T00:46:21;100555.59;;;-1.24;100.00
68525;BME280;55524;51.380;13.372;2024-01-07T00:48:56;100557.31;;;-1.24;100.00
68525;BME280;55524;51.380;13.372;2024-01-07T00:51:26;100555.59;;;-1.27;100.00
68525;BME280;55524;51.380;13.372;2024-01-07T00:53:52;100554.69;;;-1.27;100.00
68525;BME280;55524;51.380;13.372;2024-01-07T00:56:18;100556.41;;;-1.28;100.00
68525;BME280;55524;51.380;13.372;2024-01-07T00:58:48;100562.50;;;-1.26;100.00
68525;BME280;55524;51.380;13.372;2024-01-07T01:01:14;100565.06;;;-1.27;100.00
68525;BME280;55524;51.380;13.372;2024-01-07T01:03:49;100570.22;;;-1.29;100.00
68525;BME280;55524;51.380;13.372;2024-01-07T01:06:26;100565.94;;;-1.27;100.00
68525;BME280;55524;51.380;13.372;2024-01-07T01:08:52;100569.41;;;-1.25;100.00
68525;BME280;55524;51.380;13.372;2024-01-07T01:11:50;100570.31;;;-1.21;100.00
68525;BME280;55524;51.380;13.372;2024-01-07T01:17:26;100580.59;;;-1.29;100.00
68525;BME280;55524;51.380;13.372;2024-01-07T01:19:52;100583.28;;;-1.21;100.00
68525;BME280;55524;51.380;13.372;2024-01-07T01:22:19;100585.78;;;-1.27;100.00
68525;BME280;55524;51.380;13.372;2024-01-07T01:24:51;100586.63;;;-1.30;100.00
68525;BME280;55524;51.380;13.372;2024-01-07T01:27:37;100589.19;;;-1.31;100.00
68525;BME280;55524;51.380;13.372;2024-01-07T01:30:13;100590.00;;;-1.35;100.00
68525;BME280;55524;51.380;13.372;2024-01-07T01:32:40;100587.34;;;-1.40;100.00
68525;BME280;55524;51.380;13.372;2024-01-07T01:35:07;100588.25;;;-1.38;100.00
68525;BME280;55524;51.380;13.372;2024-01-07T01:37:33;100587.41;;;-1.37;100.00
68525;BME280;55524;51.380;13.372;2024-01-07T01:40:00;100590.00;;;-1.35;100.00
68525;BME280;55524;51.380;13.372;2024-01-07T01:42:26;100594.38;;;-1.34;100.00
68525;BME280;55524;51.380;13.372;2024-01-07T01:44:52;100590.00;;;-1.37;100.00
68525;BME280;55524;51.380;13.372;2024-01-07T01:47:43;100601.22;;;-1.38;100.00
68525;BME280;55524;51.380;13.372;2024-01-07T01:50:13;100598.66;;;-1.35;100.00
68525;BME280;55524;51.380;13.372;2024-01-07T01:53:03;100600.41;;;-1.34;100.00
68525;BME280;55524;51.380;13.372;2024-01-07T01:55:30;100602.13;;;-1.34;100.00
68525;BME280;55524;51.380;13.372;2024-01-07T01:57:57;100600.38;;;-1.37;100.00
68525;BME280;55524;51.380;13.372;2024-01-07T02:00:26;100606.41;;;-1.36;100.00
68525;BME280;55524;51.380;13.372;2024-01-07T02:02:55;100605.56;;;-1.35;100.00
68525;BME280;55524;51.380;13.372;2024-01-07T02:05:22;100600.31;;;-1.41;100.00
68525;BME280;55524;51.380;13.372;2024-01-07T02:07:49;100604.63;;;-1.42;100.00
68525;BME280;55524;51.380;13.372;2024-01-07T02:10:16;100609.81;;;-1.42;100.00
68525;BME280;55524;51.380;13.372;2024-01-07T02:12:42;100614.94;;;-1.45;100.00
68525;BME280;55524;51.380;13.372;2024-01-07T02:15:09;100609.75;;;-1.46;100.00
68525;BME280;55524;51.380;13.372;2024-01-07T02:17:35;100607.03;;;-1.54;100.00
68525;BME280;55524;51.380;13.372;2024-01-07T02:20:02;100608.84;;;-1.50;100.00
68525;BME280;55524;51.380;13.372;2024-01-07T02:22:49;100619.22;;;-1.47;100.00
68525;BME280;55524;51.380;13.372;2024-01-07T02:25:25;100610.56;;;-1.48;100.00
68525;BME280;55524;51.380;13.372;2024-01-07T02:27:57;100611.41;;;-1.50;100.00
68525;BME280;55524;51.380;13.372;2024-01-07T02:30:24;100616.63;;;-1.47;100.00
68525;BME280;55524;51.380;13.372;2024-01-07T02:32:50;100626.94;;;-1.52;100.00
68525;BME280;55524;51.380;13.372;2024-01-07T02:35:19;100621.78;;;-1.50;100.00
68525;BME280;55524;51.380;13.372;2024-01-07T02:37:48;100627.78;;;-1.53;100.00
68525;BME280;55524;51.380;13.372;2024-01-07T02:40:15;100634.75;;;-1.49;100.00
68525;BME280;55524;51.380;13.372;2024-01-07T02:42:41;100635.66;;;-1.46;100.00
68525;BME280;55524;51.380;13.372;2024-01-07T02:45:08;100634.75;;;-1.47;100.00
68525;BME280;55524;51.380;13.372;2024-01-07T02:47:34;100640.78;;;-1.50;100.00
68525;BME280;55524;51.380;13.372;2024-01-07T02:50:01;100627.00;;;-1.47;100.00
68525;BME280;55524;51.380;13.372;2024-01-07T02:52:33;100636.53;;;-1.46;100.00
68525;BME280;55524;51.380;13.372;2024-01-07T02:55:19;100639.13;;;-1.43;100.00
68525;BME280;55524;51.380;13.372;2024-01-07T02:57:46;100640.88;;;-1.43;100.00
68525;BME280;55524;51.380;13.372;2024-01-07T03:00:15;100650.41;;;-1.42;100.00
68525;BME280;55524;51.380;13.372;2024-01-07T03:02:42;100652.91;;;-1.47;100.00
68525;BME280;55524;51.380;13.372;2024-01-07T03:05:11;100658.09;;;-1.47;100.00
68525;BME280;55524;51.380;13.372;2024-01-07T03:07:41;100651.13;;;-1.51;100.00
68525;BME280;55524;51.380;13.372;2024-01-07T03:10:08;100650.19;;;-1.55;100.00
68525;BME280;55524;51.380;13.372;2024-01-07T03:12:37;100650.19;;;-1.56;100.00
68525;BME280;55524;51.380;13.372;2024-01-07T03:15:03;100647.59;;;-1.56;100.00
68525;BME280;55524;51.380;13.372;2024-01-07T03:17:33;100654.56;;;-1.54;100.00
68525;BME280;55524;51.380;13.372;2024-01-07T03:20:00;100656.28;;;-1.54;100.00
68525;BME280;55524;51.380;13.372;2024-01-07T03:22:26;100663.19;;;-1.52;100.00
68525;BME280;55524;51.380;13.372;2024-01-07T03:24:52;100659.66;;;-1.58;100.00
68525;BME280;55524;51.380;13.372;2024-01-07T03:27:19;100662.28;;;-1.57;100.00
68525;BME280;55524;51.380;13.372;2024-01-07T03:29:45;100659.63;;;-1.60;100.00
68525;BME280;55524;51.380;13.372;2024-01-07T03:32:11;100668.31;;;-1.58;100.00
68525;BME280;55524;51.380;13.372;2024-01-07T03:34:39;100662.16;;;-1.63;100.00
68525;BME280;55524;51.380;13.372;2024-01-07T03:37:06;100664.75;;;-1.63;100.00
68525;BME280;55524;51.380;13.372;2024-01-07T03:39:33;100663.06;;;-1.62;100.00
68525;BME280;55524;51.380;13.372;2024-01-07T03:42:00;100667.31;;;-1.64;100.00
68525;BME280;55524;51.380;13.372;2024-01-07T03:44:26;100666.47;;;-1.63;100.00
68525;BME280;55524;51.380;13.372;2024-01-07T03:46:52;100668.16;;;-1.67;100.00
68525;BME280;55524;51.380;13.372;2024-01-07T03:49:19;100677.63;;;-1.69;100.00
68525;BME280;55524;51.380;13.372;2024-01-07T03:51:49;100668.19;;;-1.65;100.00
68525;BME280;55524;51.380;13.372;2024-01-07T03:54:15;100669.84;;;-1.69;100.00
68525;BME280;55524;51.380;13.372;2024-01-07T03:56:41;100662.91;;;-1.71;100.00
68525;BME280;55524;51.380;13.372;2024-01-07T03:59:08;100671.59;;;-1.68;100.00
68525;BME280;55524;51.380;13.372;2024-01-07T04:01:34;100677.69;;;-1.64;100.00
68525;BME280;55524;51.380;13.372;2024-01-07T04:04:00;100675.03;;;-1.67;100.00
68525;BME280;55524;51.380;13.372;2024-01-07T04:06:28;100668.97;;;-1.69;100.00
68525;BME280;55524;51.380;13.372;2024-01-07T04:08:54;100676.81;;;-1.65;100.00
68525;BME280;55524;51.380;13.372;2024-01-07T04:11:21;100682.81;;;-1.69;100.00
68525;BME280;55524;51.380;13.372;2024-01-07T04:13:47;100674.16;;;-1.69;100.00
68525;BME280;55524;51.380;13.372;2024-01-07T04:16:18;100683.63;;;-1.71;100.00
68525;BME280;55524;51.380;13.372;2024-01-07T04:18:45;100674.19;;;-1.68;100.00
68525;BME280;55524;51.380;13.372;2024-01-07T04:21:12;100680.16;;;-1.74;100.00
68525;BME280;55524;51.380;13.372;2024-01-07T04:23:41;100673.13;;;-1.79;100.00
68525;BME280;55524;51.380;13.372;2024-01-07T04:26:08;100675.66;;;-1.82;100.00
68525;BME280;55524;51.380;13.372;2024-01-07T04:28:34;100689.53;;;-1.79;100.00
68525;BME280;55524;51.380;13.372;2024-01-07T04:31:01;100695.63;;;-1.78;100.00
68525;BME280;55524;51.380;13.372;2024-01-07T04:33:27;100695.63;;;-1.78;100.00
68525;BME280;55524;51.380;13.372;2024-01-07T04:35:54;100698.16;;;-1.81;100.00
68525;BME280;55524;51.380;13.372;2024-01-07T04:38:24;100695.56;;;-1.81;100.00
68525;BME280;55524;51.380;13.372;2024-01-07T04:40:51;100703.25;;;-1.86;100.00
68525;BME280;55524;51.380;13.372;2024-01-07T04:43:18;100701.47;;;-1.87;100.00
68525;BME280;55524;51.380;13.372;2024-01-07T04:45:46;100705.03;;;-1.82;100.00
68525;BME280;55524;51.380;13.372;2024-01-07T04:48:13;100705.88;;;-1.83;100.00
68525;BME280;55524;51.380;13.372;2024-01-07T04:50:40;100710.09;;;-1.88;100.00
68525;BME280;55524;51.380;13.372;2024-01-07T04:53:18;100708.31;;;-1.92;100.00
68525;BME280;55524;51.380;13.372;2024-01-07T04:55:45;100711.81;;;-1.90;100.00
68525;BME280;55524;51.380;13.372;2024-01-07T04:58:11;100715.28;;;-1.89;100.00
68525;BME280;55524;51.380;13.372;2024-01-07T05:00:38;100715.31;;;-1.86;100.00
68525;BME280;55524;51.380;13.372;2024-01-07T05:03:04;100719.63;;;-1.87;100.00
68525;BME280;55524;51.380;13.372;2024-01-07T05:05:31;100704.84;;;-1.92;100.00
68525;BME280;55524;51.380;13.372;2024-01-07T05:07:57;100719.53;;;-1.91;100.00
68525;BME280;55524;51.380;13.372;2024-01-07T05:10:26;100723.88;;;-1.90;100.00
68525;BME280;55524;51.380;13.372;2024-01-07T05:12:53;100721.31;;;-1.89;100.00
68525;BME280;55524;51.380;13.372;2024-01-07T05:15:19;100716.94;;;-1.93;100.00
68525;BME280;55524;51.380;13.372;2024-01-07T05:17:45;100722.03;;;-1.96;100.00
68525;BME280;55524;51.380;13.372;2024-01-07T05:20:12;100725.63;;;-1.89;100.00
68525;BME280;55524;51.380;13.372;2024-01-07T05:22:51;100731.63;;;-1.92;100.00
68525;BME280;55524;51.380;13.372;2024-01-07T05:25:18;100735.94;;;-1.91;100.00
68525;BME280;55524;51.380;13.372;2024-01-07T05:27:44;100739.41;;;-1.90;100.00
68525;BME280;55524;51.380;13.372;2024-01-07T05:30:11;100741.03;;;-1.97;100.00
68525;BME280;55524;51.380;13.372;2024-01-07T05:32:37;100745.34;;;-1.96;100.00
68525;BME280;55524;51.380;13.372;2024-01-07T05:35:04;100740.19;;;-1.96;100.00
68525;BME280;55524;51.380;13.372;2024-01-07T05:37:30;100747.03;;;-1.98;100.00
68525;BME280;55524;51.380;13.372;2024-01-07T05:39:57;100747.88;;;-1.99;100.00
68525;BME280;55524;51.380;13.372;2024-01-07T05:42:23;100746.13;;;-2.02;100.00
68525;BME280;55524;51.380;13.372;2024-01-07T05:44:50;100751.25;;;-2.05;100.00
68525;BME280;55524;51.380;13.372;2024-01-07T05:47:19;100759.88;;;-2.04;100.00
68525;BME280;55524;51.380;13.372;2024-01-07T05:49:46;100758.09;;;-2.07;100.00
68525;BME280;55524;51.380;13.372;2024-01-07T05:52:12;100756.34;;;-2.08;100.00
68525;BME280;55524;51.380;13.372;2024-01-07T05:54:39;100761.50;;;-2.09;100.00
68525;BME280;55524;51.380;13.372;2024-01-07T05:57:06;100754.56;;;-2.10;100.00
68525;BME280;55524;51.380;13.372;2024-01-07T05:59:32;100768.44;;;-2.07;100.00
68525;BME280;55524;51.380;13.372;2024-01-07T06:01:59;100771.00;;;-2.08;100.00
68525;BME280;55524;51.380;13.372;2024-01-07T06:04:25;100774.41;;;-2.11;100.00
68525;BME280;55524;51.380;13.372;2024-01-07T06:06:53;100781.44;;;-2.05;100.00
68525;BME280;55524;51.380;13.372;2024-01-07T06:09:22;100784.03;;;-2.05;100.00
68525;BME280;55524;51.380;13.372;2024-01-07T06:11:49;100793.41;;;-2.10;100.00
68525;BME280;55524;51.380;13.372;2024-01-07T06:14:15;100789.06;;;-2.13;100.00
68525;BME280;55524;51.380;13.372;2024-01-07T06:16:41;100795.09;;;-2.12;100.00
68525;BME280;55524;51.380;13.372;2024-01-07T06:19:08;100800.34;;;-2.09;100.00
68525;BME280;55524;51.380;13.372;2024-01-07T06:21:35;100796.75;;;-2.16;100.00
68525;BME280;55524;51.380;13.372;2024-01-07T06:24:01;100795.03;;;-2.15;100.00
68525;BME280;55524;51.380;13.372;2024-01-07T06:26:27;100801.94;;;-2.14;100.00
68525;BME280;55524;51.380;13.372;2024-01-07T06:28:54;100802.88;;;-2.12;100.00
68525;BME280;55524;51.380;13.372;2024-01-07T06:31:20;100801.00;;;-2.19;100.00
68525;BME280;55524;51.380;13.372;2024-01-07T06:33:46;100809.69;;;-2.16;100.00
68525;BME280;55524;51.380;13.372;2024-01-07T06:36:13;100823.47;;;-2.17;100.00
68525;BME280;55524;51.380;13.372;2024-01-07T06:38:40;100826.78;;;-2.24;100.00
68525;BME280;55524;51.380;13.372;2024-01-07T06:41:06;100833.63;;;-2.26;100.00
68525;BME280;55524;51.380;13.372;2024-01-07T06:43:33;100834.53;;;-2.26;100.00
68525;BME280;55524;51.380;13.372;2024-01-07T06:49:12;100838.00;;;-2.24;100.00
68525;BME280;55524;51.380;13.372;2024-01-07T06:51:39;100837.91;;;-2.28;100.00
68525;BME280;55524;51.380;13.372;2024-01-07T06:54:06;100828.28;;;-2.34;100.00
68525;BME280;55524;51.380;13.372;2024-01-07T06:56:32;100834.31;;;-2.35;100.00
68525;BME280;55524;51.380;13.372;2024-01-07T06:58:59;100820.41;;;-2.41;100.00
68525;BME280;55524;51.380;13.372;2024-01-07T07:01:26;100828.25;;;-2.37;100.00
68525;BME280;55524;51.380;13.372;2024-01-07T07:03:52;100821.28;;;-2.39;100.00
68525;BME280;55524;51.380;13.372;2024-01-07T07:06:18;100817.84;;;-2.38;100.00
68525;BME280;55524;51.380;13.372;2024-01-07T07:08:46;100822.19;;;-2.37;100.00
68525;BME280;55524;51.380;13.372;2024-01-07T07:11:12;100817.81;;;-2.40;100.00
68525;BME280;55524;51.380;13.372;2024-01-07T07:13:38;100823.88;;;-2.38;100.00
68525;BME280;55524;51.380;13.372;2024-01-07T07:16:05;100829.03;;;-2.41;100.00
68525;BME280;55524;51.380;13.372;2024-01-07T07:18:32;100833.97;;;-2.50;100.00
68525;BME280;55524;51.380;13.372;2024-01-07T07:20:59;100851.22;;;-2.51;100.00
68525;BME280;55524;51.380;13.372;2024-01-07T07:23:25;100858.91;;;-2.54;100.00
68525;BME280;55524;51.380;13.372;2024-01-07T07:25:51;100864.06;;;-2.55;100.00
68525;BME280;55524;51.380;13.372;2024-01-07T07:28:18;100858.72;;;-2.63;100.00
68525;BME280;55524;51.380;13.372;2024-01-07T07:30:44;100859.56;;;-2.62;100.00
68525;BME280;55524;51.380;13.372;2024-01-07T07:33:11;100861.22;;;-2.66;100.00
68525;BME280;55524;51.380;13.372;2024-01-07T07:35:37;100861.13;;;-2.70;100.00
68525;BME280;55524;51.380;13.372;2024-01-07T07:38:06;100863.63;;;-2.74;100.00
68525;BME280;55524;51.380;13.372;2024-01-07T07:40:32;100861.63;;;-2.85;100.00
68525;BME280;55524;51.380;13.372;2024-01-07T07:42:58;100872.91;;;-2.82;100.00
68525;BME280;55524;51.380;13.372;2024-01-07T07:45:25;100863.28;;;-2.89;100.00
68525;BME280;55524;51.380;13.372;2024-01-07T07:47:51;100873.56;;;-2.92;100.00
68525;BME280;55524;51.380;13.372;2024-01-07T07:50:17;100882.19;;;-2.90;100.00
68525;BME280;55524;51.380;13.372;2024-01-07T07:52:44;100889.19;;;-2.86;100.00
68525;BME280;55524;51.380;13.372;2024-01-07T07:55:11;100889.16;;;-2.89;100.00
68525;BME280;55524;51.380;13.372;2024-01-07T07:57:37;100900.41;;;-2.85;100.00
68525;BME280;55524;51.380;13.372;2024-01-07T08:00:10;100902.19;;;-2.84;100.00
68525;BME280;55524;51.380;13.372;2024-01-07T08:02:38;100901.31;;;-2.85;100.00
68525;BME280;55524;51.380;13.372;2024-01-07T08:05:07;100880.53;;;-2.88;100.00
68525;BME280;55524;51.380;13.372;2024-01-07T08:07:33;100869.44;;;-2.84;100.00
68525;BME280;55524;51.380;13.372;2024-01-07T08:09:59;100865.94;;;-2.86;100.00
68525;BME280;55524;51.380;13.372;2024-01-07T08:12:26;100866.66;;;-2.91;100.00
68525;BME280;55524;51.380;13.372;2024-01-07T08:14:52;100861.50;;;-2.91;100.00
68525;BME280;55524;51.380;13.372;2024-01-07T08:17:19;100871.84;;;-2.91;100.00
68525;BME280;55524;51.380;13.372;2024-01-07T08:19:48;100863.25;;;-2.90;100.00
68525;BME280;55524;51.380;13.372;2024-01-07T08:22:22;100860.53;;;-2.95;100.00
68525;BME280;55524;51.380;13.372;2024-01-07T08:24:49;100870.09;;;-2.92;100.00
68525;BME280;55524;51.380;13.372;2024-01-07T08:30:57;100882.19;;;-2.91;100.00
68525;BME280;55524;51.380;13.372;2024-01-07T08:33:24;100880.56;;;-2.86;100.00
68525;BME280;55524;51.380;13.372;2024-01-07T08:36:11;100880.66;;;-2.82;100.00
68525;BME280;55524;51.380;13.372;2024-01-07T08:39:05;100869.44;;;-2.84;100.00
68525;BME280;55524;51.380;13.372;2024-01-07T08:41:31;100872.88;;;-2.83;100.00
68525;BME280;55524;51.380;13.372;2024-01-07T08:43:58;100882.28;;;-2.87;100.00
68525;BME280;55524;51.380;13.372;2024-01-07T08:46:28;100880.53;;;-2.88;100.00
68525;BME280;55524;51.380;13.372;2024-01-07T08:48:54;100883.91;;;-2.92;100.00
68525;BME280;55524;51.380;13.372;2024-01-07T08:51:20;100896.16;;;-2.83;100.00
68525;BME280;55524;51.380;13.372;2024-01-07T08:53:47;100890.06;;;-2.85;100.00
68525;BME280;55524;51.380;13.372;2024-01-07T08:56:13;100898.63;;;-2.88;100.00
68525;BME280;55524;51.380;13.372;2024-01-07T08:58:41;100902.00;;;-2.92;100.00
68525;BME280;55524;51.380;13.372;2024-01-07T09:01:08;100904.59;;;-2.90;100.00
68525;BME280;55524;51.380;13.372;2024-01-07T09:03:34;100901.22;;;-2.88;100.00
68525;BME280;55524;51.380;13.372;2024-01-07T09:06:07;100909.13;;;-2.82;100.00
68525;BME280;55524;51.380;13.372;2024-01-07T09:08:34;100912.56;;;-2.81;100.00
68525;BME280;55524;51.380;13.372;2024-01-07T09:11:03;100908.25;;;-2.82;100.00
68525;BME280;55524;51.380;13.372;2024-01-07T09:13:36;100916.94;;;-2.79;100.00
68525;BME280;55524;51.380;13.372;2024-01-07T09:16:03;100931.75;;;-2.73;100.00
68525;BME280;55524;51.380;13.372;2024-01-07T09:18:30;100930.91;;;-2.72;100.00
68525;BME280;55524;51.380;13.372;2024-01-07T09:24:09;100933.63;;;-2.66;100.00
68525;BME280;55524;51.380;13.372;2024-01-07T09:26:38;100944.03;;;-2.64;100.00
68525;BME280;55524;51.380;13.372;2024-01-07T09:29:23;100928.53;;;-2.64;100.00
68525;BME280;55524;51.380;13.372;2024-01-07T09:31:53;100942.25;;;-2.65;100.00
68525;BME280;55524;51.380;13.372;2024-01-07T09:34:20;100939.72;;;-2.64;100.00
68525;BME280;55524;51.380;13.372;2024-01-07T09:37:04;100948.34;;;-2.65;100.00
68525;BME280;55524;51.380;13.372;2024-01-07T09:39:40;100947.38;;;-2.68;100.00
68525;BME280;55524;51.380;13.372;2024-01-07T09:42:19;100964.19;;;-2.51;100.00
68525;BME280;55524;51.380;13.372;2024-01-07T09:44:46;100954.47;;;-2.61;100.00
68525;BME280;55524;51.380;13.372;2024-01-07T09:51:14;100933.59;;;-2.67;100.00
68525;BME280;55524;51.380;13.372;2024-01-07T09:53:45;100930.88;;;-2.74;100.00
68525;BME280;55524;51.380;13.372;2024-01-07T09:56:19;100927.41;;;-2.74;100.00
68525;BME280;55524;51.380;13.372;2024-01-07T09:58:46;100931.75;;;-2.73;100.00
68525;BME280;55524;51.380;13.372;2024-01-07T10:01:19;100937.41;;;-2.53;100.00
68525;BME280;55524;51.380;13.372;2024-01-07T10:03:45;100913.00;;;-2.64;98.66
68525;BME280;55524;51.380;13.372;2024-01-07T10:06:12;100910.50;;;-2.61;98.83
68525;BME280;55524;51.380;13.372;2024-01-07T10:08:40;100912.19;;;-2.62;97.72
68525;BME280;55524;51.380;13.372;2024-01-07T10:11:06;100914.75;;;-2.62;98.63
68525;BME280;55524;51.380;13.372;2024-01-07T10:13:35;100901.13;;;-2.56;96.16
68525;BME280;55524;51.380;13.372;2024-01-07T10:16:20;100898.47;;;-2.58;94.24
68525;BME280;55524;51.380;13.372;2024-01-07T10:18:49;100911.66;;;-2.49;95.95
68525;BME280;55524;51.380;13.372;2024-01-07T10:21:16;100913.22;;;-2.55;95.29
68525;BME280;55524;51.380;13.372;2024-01-07T10:23:42;100920.78;;;-2.63;94.92
68525;BME280;55524;51.380;13.372;2024-01-07T10:26:11;100919.34;;;-2.50;95.57
68525;BME280;55524;51.380;13.372;2024-01-07T10:28:44;100919.50;;;-2.44;93.78
68525;BME280;55524;51.380;13.372;2024-01-07T10:31:10;100920.66;;;-2.31;95.95
68525;BME280;55524;51.380;13.372;2024-01-07T10:33:37;100920.66;;;-2.31;95.70
68525;BME280;55524;51.380;13.372;2024-01-07T10:36:06;100922.38;;;-2.30;95.42
68525;BME280;55524;51.380;13.372;2024-01-07T10:38:33;100910.88;;;-2.44;94.29
68525;BME280;55524;51.380;13.372;2024-01-07T10:41:00;100911.69;;;-2.45;92.69
68525;BME280;55524;51.380;13.372;2024-01-07T10:43:30;100914.53;;;-2.35;93.27
68525;BME280;55524;51.380;13.372;2024-01-07T10:46:01;100904.88;;;-2.42;93.15
68525;BME280;55524;51.380;13.372;2024-01-07T10:48:31;100910.00;;;-2.45;93.76
68525;BME280;55524;51.380;13.372;2024-01-07T10:51:00;100911.66;;;-2.47;94.42
68525;BME280;55524;51.380;13.372;2024-01-07T10:53:33;100932.53;;;-2.41;96.69
68525;BME280;55524;51.380;13.372;2024-01-07T10:56:07;100921.94;;;-2.50;95.42
68525;BME280;55524;51.380;13.372;2024-01-07T10:58:37;100919.31;;;-2.52;95.45
68525;BME280;55524;51.380;13.372;2024-01-07T11:01:22;100930.72;;;-2.43;96.71
68525;BME280;55524;51.380;13.372;2024-01-07T11:04:02;100925.56;;;-2.42;97.53
68525;BME280;55524;51.380;13.372;2024-01-07T11:06:33;100934.16;;;-2.44;95.83
68525;BME280;55524;51.380;13.372;2024-01-07T11:09:34;100938.66;;;-2.36;95.44
68525;BME280;55524;51.380;13.372;2024-01-07T11:12:05;100933.94;;;-2.16;98.18
68525;BME280;55524;51.380;13.372;2024-01-07T11:14:40;100931.19;;;-2.24;96.80
68525;BME280;55524;51.380;13.372;2024-01-07T11:17:08;100942.41;;;-2.23;98.18
68525;BME280;55524;51.380;13.372;2024-01-07T11:19:38;100947.56;;;-2.25;98.16
68525;BME280;55524;51.380;13.372;2024-01-07T11:22:29;100943.97;;;-2.30;97.16
68525;BME280;55524;51.380;13.372;2024-01-07T11:25:28;100956.97;;;-2.27;99.87
68525;BME280;55524;51.380;13.372;2024-01-07T11:27:57;100947.50;;;-2.26;98.15
68525;BME280;55524;51.380;13.372;2024-01-07T11:30:24;100934.38;;;-2.34;96.95
68525;BME280;55524;51.380;13.372;2024-01-07T11:32:57;100940.47;;;-2.32;97.75
68525;BME280;55524;51.380;13.372;2024-01-07T11:38:19;100942.41;;;-2.23;96.89
68525;BME280;55524;51.380;13.372;2024-01-07T11:40:47;100939.34;;;-2.05;96.30
68525;BME280;55524;51.380;13.372;2024-01-07T11:43:15;100931.72;;;-1.99;95.19
68525;BME280;55524;51.380;13.372;2024-01-07T11:45:41;100938.78;;;-1.92;95.85
68525;BME280;55524;51.380;13.372;2024-01-07T11:48:10;100940.75;;;-1.79;96.42
68525;BME280;55524;51.380;13.372;2024-01-07T11:50:40;100921.56;;;-1.90;93.41
68525;BME280;55524;51.380;13.372;2024-01-07T11:53:06;100931.88;;;-1.91;94.90
68525;BME280;55524;51.380;13.372;2024-01-07T11:55:33;100926.75;;;-1.90;94.39
68525;BME280;55524;51.380;13.372;2024-01-07T11:58:03;100928.28;;;-1.98;93.13
68525;BME280;55524;51.380;13.372;2024-01-07T12:00:35;100924.03;;;-1.94;92.85
68525;BME280;55524;51.380;13.372;2024-01-07T12:03:04;100924.00;;;-1.98;93.16
68525;BME280;55524;51.380;13.372;2024-01-07T12:05:34;100939.63;;;-1.91;95.70
68525;BME280;55524;51.380;13.372;2024-01-07T12:08:04;100926.00;;;-1.83;92.87
68525;BME280;55524;51.380;13.372;2024-01-07T12:10:32;100935.72;;;-1.74;94.04
68525;BME280;55524;51.380;13.372;2024-01-07T12:13:06;100916.81;;;-1.67;91.52
68525;BME280;55524;51.380;13.372;2024-01-07T12:15:35;100912.53;;;-1.66;91.15
68525;BME280;55524;51.380;13.372;2024-01-07T12:18:02;100914.38;;;-1.61;90.28
68525;BME280;55524;51.380;13.372;2024-01-07T12:20:30;100916.16;;;-1.58;89.97
68525;BME280;55524;51.380;13.372;2024-01-07T12:23:08;100914.47;;;-1.55;89.72
68525;BME280;55524;51.380;13.372;2024-01-07T12:25:35;100923.22;;;-1.50;89.59
68525;BME280;55524;51.380;13.372;2024-01-07T12:28:06;100925.06;;;-1.44;90.32
68525;BME280;55524;51.380;13.372;2024-01-07T12:30:32;100932.81;;;-1.44;90.02
68525;BME280;55524;51.380;13.372;2024-01-07T12:32:59;100924.25;;;-1.41;88.58
68525;BME280;55524;51.380;13.372;2024-01-07T12:35:27;100932.03;;;-1.41;89.76
68525;BME280;55524;51.380;13.372;2024-01-07T12:37:54;100929.53;;;-1.37;89.40
68525;BME280;55524;51.380;13.372;2024-01-07T12:40:22;100926.13;;;-1.33;89.18
68525;BME280;55524;51.380;13.372;2024-01-07T12:42:50;100931.31;;;-1.34;89.49
68525;BME280;55524;51.380;13.372;2024-01-07T12:45:17;100935.50;;;-1.39;90.41
68525;BME280;55524;51.380;13.372;2024-01-07T12:47:43;100935.59;;;-1.35;88.63
68525;BME280;55524;51.380;13.372;2024-01-07T12:50:11;100935.59;;;-1.35;90.14
68525;BME280;55524;51.380;13.372;2024-01-07T12:52:39;100945.94;;;-1.36;91.64
68525;BME280;55524;51.380;13.372;2024-01-07T12:55:06;100949.53;;;-1.30;91.91
68525;BME280;55524;51.380;13.372;2024-01-07T12:57:36;100951.94;;;-1.39;91.12
68525;BME280;55524;51.380;13.372;2024-01-07T13:00:07;100951.75;;;-1.50;91.31
68525;BME280;55524;51.380;13.372;2024-01-07T13:02:37;100950.88;;;-1.50;91.72